createdAt,value
2019-03-23T00:01:46.360Z,3.07
2019-03-23T00:04:33.110Z,2.50
2019-03-23T00:07:22.682Z,2.50
2019-03-23T00:09:49.248Z,2.53
2019-03-23T00:12:25.619Z,2.20
2019-03-23T00:15:02.458Z,2.50
2019-03-23T00:17:45.226Z,2.50
2019-03-23T00:23:38.057Z,2.47
2019-03-23T00:26:44.729Z,2.10
2019-03-23T00:29:21.007Z,3.52
2019-03-23T00:33:03.231Z,2.57
2019-03-23T00:43:56.841Z,2.07
2019-03-23T00:46:29.572Z,2.50
2019-03-23T00:49:03.492Z,3.17
2019-03-23T00:51:34.996Z,3.20
2019-03-23T01:09:47.230Z,2.93
2019-03-23T01:12:48.768Z,2.70
2019-03-23T01:15:19.773Z,2.83
2019-03-23T01:18:10.607Z,2.67
2019-03-23T01:20:49.670Z,2.80
2019-03-23T01:23:20.201Z,2.63
2019-03-23T01:25:51.576Z,3.10
2019-03-23T01:28:25.007Z,3.10
2019-03-23T01:37:15.732Z,2.97
2019-03-23T01:39:52.562Z,2.77
2019-03-23T01:43:08.391Z,3.83
2019-03-23T01:45:35.205Z,3.63
2019-03-23T01:48:08.856Z,3.37
2019-03-23T01:50:53.213Z,3.80
2019-03-23T01:53:51.427Z,3.17
2019-03-23T01:56:32.210Z,3.90
2019-03-23T01:59:03.505Z,3.77
2019-03-23T02:01:42.013Z,4.00
2019-03-23T02:04:37.916Z,3.33
2019-03-23T02:06:48.145Z,4.13
2019-03-23T02:09:23.985Z,3.27
2019-03-23T02:12:03.564Z,3.70
2019-03-23T02:17:36.631Z,3.57
2019-03-23T02:20:13.066Z,3.80
2019-03-23T02:22:50.665Z,4.23
2019-03-23T02:25:28.577Z,3.77
2019-03-23T02:28:02.521Z,3.90
2019-03-23T02:36:42.088Z,4.17
2019-03-23T02:39:13.254Z,3.77
2019-03-23T02:41:48.176Z,4.27
2019-03-23T02:44:19.426Z,4.13
2019-03-23T02:46:52.522Z,4.03
2019-03-23T02:49:24.071Z,4.33
2019-03-23T02:51:55.308Z,4.07
2019-03-23T02:54:27.435Z,4.13
2019-03-23T02:56:59.658Z,5.37
2019-03-23T02:59:33.937Z,4.47
2019-03-23T03:02:03.956Z,4.20
2019-03-23T03:04:36.509Z,4.47
2019-03-23T03:07:10.290Z,4.80
2019-03-23T03:09:41.329Z,3.87
2019-03-23T03:12:12.402Z,4.00
2019-03-23T03:14:43.622Z,4.53
2019-03-23T03:17:16.833Z,4.70
2019-03-23T03:19:48.003Z,4.77
2019-03-23T03:22:22.176Z,4.73
2019-03-23T03:24:53.138Z,4.10
2019-03-23T03:27:25.671Z,4.73
2019-03-23T03:29:59.405Z,4.47
2019-03-23T03:32:31.223Z,4.40
2019-03-23T03:35:04.687Z,4.60
2019-03-23T03:37:35.927Z,4.93
2019-03-23T03:40:07.597Z,4.90
2019-03-23T03:42:41.121Z,4.80
2019-03-23T03:45:16.333Z,4.77
2019-03-23T03:47:47.630Z,4.90
2019-03-23T03:50:18.802Z,4.77
2019-03-23T03:52:52.724Z,5.20
2019-03-23T03:55:25.550Z,5.83
2019-03-23T03:57:56.860Z,4.83
2019-03-23T04:00:30.729Z,5.30
2019-03-23T04:03:02.477Z,5.07
2019-03-23T04:05:40.331Z,5.23
2019-03-23T04:08:16.459Z,5.20
2019-03-23T04:10:47.732Z,5.33
2019-03-23T04:13:19.242Z,4.80
2019-03-23T04:15:50.474Z,5.30
2019-03-23T04:18:23.881Z,5.20
2019-03-23T04:20:57.815Z,5.13
2019-03-23T04:23:29.031Z,5.57
2019-03-23T04:26:00.276Z,5.50
2019-03-23T04:28:31.458Z,5.83
2019-03-23T04:31:03.929Z,6.37
2019-03-23T04:33:35.352Z,6.83
2019-03-23T04:36:07.385Z,6.70
2019-03-23T04:38:38.599Z,6.57
2019-03-23T04:41:12.683Z,6.53
2019-03-23T04:43:45.065Z,5.93
2019-03-23T04:46:16.716Z,7.20
2019-03-23T04:48:47.868Z,6.30
2019-03-23T04:51:26.210Z,6.80
2019-03-23T04:53:57.518Z,6.37
2019-03-23T04:56:29.979Z,6.73
2019-03-23T04:59:01.567Z,7.10
2019-03-23T05:01:32.853Z,6.03
2019-03-23T05:04:04.176Z,6.53
2019-03-23T05:06:37.426Z,7.50
2019-03-23T05:09:13.963Z,7.00
2019-03-23T05:11:45.070Z,6.97
2019-03-23T05:14:16.222Z,6.53
2019-03-23T05:16:47.499Z,7.33
2019-03-23T05:19:19.033Z,7.03
2019-03-23T05:21:55.094Z,6.40
2019-03-23T05:24:25.474Z,6.73
2019-03-23T05:26:58.238Z,6.80
2019-03-23T05:29:29.543Z,7.30
2019-03-23T05:32:00.607Z,6.23
2019-03-23T05:34:31.813Z,7.90
2019-03-23T05:37:03.574Z,7.27
2019-03-23T05:39:34.707Z,7.37
2019-03-23T05:42:06.395Z,7.43
2019-03-23T05:44:46.003Z,8.03
2019-03-23T05:47:19.492Z,7.47
2019-03-23T05:49:51.229Z,8.40
2019-03-23T05:52:25.801Z,8.70
2019-03-23T05:54:56.963Z,7.73
2019-03-23T05:57:28.093Z,8.23
2019-03-23T05:59:59.416Z,8.03
2019-03-23T06:02:49.854Z,8.60
2019-03-23T06:05:33.737Z,8.70
2019-03-23T06:08:06.083Z,8.67
2019-03-23T06:10:38.056Z,9.27
2019-03-23T06:13:13.661Z,8.70
2019-03-23T06:15:48.108Z,9.77
2019-03-23T06:18:22.310Z,9.20
2019-03-23T06:20:57.633Z,9.03
2019-03-23T06:23:29.088Z,9.13
2019-03-23T06:26:13.026Z,10.60
2019-03-23T06:28:44.940Z,10.53
2019-03-23T06:31:18.379Z,9.93
2019-03-23T06:34:05.416Z,10.07
2019-03-23T06:36:28.584Z,10.00
2019-03-23T06:39:05.318Z,10.70
2019-03-23T06:41:36.129Z,10.57
2019-03-23T06:44:18.332Z,11.20
2019-03-23T06:46:54.396Z,10.83
2019-03-23T06:49:25.870Z,10.00
2019-03-23T06:52:06.503Z,11.07
2019-03-23T06:54:41.934Z,11.10
2019-03-23T06:57:25.038Z,11.53
2019-03-23T07:00:05.726Z,10.50
2019-03-23T07:02:41.169Z,10.70
2019-03-23T07:05:39.170Z,9.67
2019-03-23T07:08:15.423Z,10.57
2019-03-23T07:11:00.848Z,10.43
2019-03-23T07:13:35.394Z,10.35
2019-03-23T07:19:43.914Z,9.83
2019-03-23T07:25:50.644Z,10.73
2019-03-23T07:28:26.198Z,10.87
2019-03-23T07:30:57.555Z,11.22
2019-03-23T07:33:56.818Z,11.20
2019-03-23T07:36:34.944Z,11.00
2019-03-23T07:39:08.169Z,10.35
2019-03-23T07:45:00.019Z,10.48
2019-03-23T07:47:38.040Z,10.72
2019-03-23T07:51:01.161Z,10.10
2019-03-23T07:53:55.614Z,10.17
2019-03-23T07:56:28.890Z,10.63
2019-03-23T07:59:05.596Z,11.27
2019-03-23T08:01:44.751Z,10.00
2019-03-23T08:04:47.218Z,10.30
2019-03-23T08:07:42.582Z,10.27
2019-03-23T08:10:33.366Z,10.23
2019-03-23T08:13:05.912Z,10.00
2019-03-23T08:15:37.905Z,10.13
2019-03-23T08:18:13.102Z,11.20
2019-03-23T08:20:45.648Z,9.90
2019-03-23T08:23:28.249Z,11.23
2019-03-23T08:29:44.150Z,9.83
2019-03-23T08:32:22.766Z,9.77
2019-03-23T08:39:18.571Z,9.40
2019-03-23T08:48:56.482Z,8.80
2019-03-23T08:52:11.224Z,10.03
2019-03-23T08:54:52.614Z,10.28
2019-03-23T09:01:07.422Z,9.28
2019-03-23T09:04:11.708Z,9.60
2019-03-23T09:06:34.542Z,8.80
2019-03-23T09:09:37.989Z,8.97
2019-03-23T09:12:34.306Z,7.08
2019-03-23T09:14:55.957Z,6.78
2019-03-23T09:17:58.300Z,4.65
2019-03-23T09:20:31.196Z,3.50
2019-03-23T09:23:09.663Z,2.70
2019-03-23T09:25:48.544Z,2.55
2019-03-23T09:28:27.155Z,2.30
2019-03-23T09:30:55.377Z,2.20
2019-03-23T09:34:01.128Z,2.30
2019-03-23T09:36:32.285Z,2.40
2019-03-23T09:39:49.805Z,1.65
2019-03-23T09:42:28.092Z,1.80
2019-03-23T09:45:29.753Z,2.02
2019-03-23T09:48:09.954Z,2.35
2019-03-23T09:51:23.943Z,1.85
2019-03-23T09:54:25.017Z,2.12
2019-03-23T09:57:02.176Z,2.45
2019-03-23T09:59:43.311Z,1.90
2019-03-23T10:02:34.484Z,2.10
2019-03-23T10:05:09.028Z,1.70
2019-03-23T10:07:45.302Z,1.70
2019-03-23T10:10:22.103Z,1.65
2019-03-23T10:12:54.328Z,1.80
2019-03-23T10:15:44.200Z,1.80
2019-03-23T10:21:29.300Z,2.08
2019-03-23T10:24:08.354Z,2.12
2019-03-23T10:28:17.712Z,2.10
2019-03-23T10:29:15.405Z,1.90
2019-03-23T10:31:57.762Z,1.80
2019-03-23T10:34:24.957Z,1.65
2019-03-23T10:36:55.935Z,1.72
2019-03-23T10:39:26.824Z,1.80
2019-03-23T10:42:36.792Z,1.80
2019-03-23T10:44:48.801Z,1.90
2019-03-23T10:47:29.132Z,1.90
2019-03-23T10:50:03.419Z,1.67
2019-03-23T10:52:37.352Z,1.52
2019-03-23T10:55:16.043Z,1.87
2019-03-23T10:57:50.071Z,1.52
2019-03-23T11:00:55.732Z,2.00
2019-03-23T11:03:26.794Z,1.72
2019-03-23T11:06:04.994Z,1.80
2019-03-23T11:08:58.471Z,1.60
2019-03-23T11:11:27.399Z,1.95
2019-03-23T11:14:21.590Z,1.80
2019-03-23T11:16:59.945Z,1.82
2019-03-23T11:19:36.764Z,1.85
2019-03-23T11:22:10.119Z,2.47
2019-03-23T11:24:46.492Z,2.25
2019-03-23T11:27:22.430Z,1.67
2019-03-23T11:30:57.232Z,1.75
2019-03-23T11:33:09.699Z,1.82
2019-03-23T11:35:57.685Z,1.65
2019-03-23T11:38:32.578Z,1.70
2019-03-23T11:41:15.936Z,1.98
2019-03-23T11:44:05.001Z,2.67
2019-03-23T11:47:00.402Z,1.67
2019-03-23T11:49:13.168Z,1.50
2019-03-23T11:52:04.888Z,1.80
2019-03-23T11:54:48.668Z,2.02
2019-03-23T11:57:50.790Z,1.60
2019-03-23T12:00:26.321Z,1.92
2019-03-23T12:03:03.049Z,1.95
2019-03-23T12:06:15.755Z,2.12
2019-03-23T12:15:15.179Z,1.82
2019-03-23T12:18:15.107Z,1.82
2019-03-23T12:21:11.911Z,2.12
2019-03-23T12:23:45.563Z,1.85
2019-03-23T12:26:23.882Z,2.30
2019-03-23T12:28:54.837Z,1.80
2019-03-23T12:41:10.004Z,2.05
2019-03-23T12:43:48.475Z,1.98
2019-03-23T12:52:04.563Z,1.90
2019-03-23T12:54:59.375Z,1.65
2019-03-23T12:57:37.695Z,2.00
2019-03-23T13:00:20.059Z,1.98
2019-03-23T13:03:03.938Z,1.80
2019-03-23T13:05:35.130Z,1.82
2019-03-23T13:08:06.613Z,2.20
2019-03-23T13:10:56.211Z,2.40
2019-03-23T13:13:32.139Z,2.20
2019-03-23T13:16:03.298Z,2.60
2019-03-23T13:18:37.191Z,2.00
2019-03-23T13:21:08.268Z,1.92
2019-03-23T13:23:44.757Z,2.58
2019-03-23T13:26:15.910Z,2.87
2019-03-23T13:28:48.470Z,2.02
2019-03-23T13:31:19.625Z,2.05
2019-03-23T13:33:50.775Z,2.67
2019-03-23T13:36:24.316Z,2.15
2019-03-23T13:39:07.501Z,2.12
2019-03-23T13:41:47.034Z,1.90
2019-03-23T13:44:39.212Z,2.75
2019-03-23T13:51:40.573Z,1.92
2019-03-23T14:00:36.440Z,1.70
2019-03-23T14:13:11.425Z,2.12
2019-03-23T14:18:45.583Z,1.75
2019-03-23T14:21:23.304Z,2.30
2019-03-23T14:24:03.257Z,2.00
2019-03-23T14:26:39.379Z,1.60
2019-03-23T14:29:26.261Z,2.00
2019-03-23T14:31:57.362Z,1.80
2019-03-23T14:34:34.868Z,2.62
2019-03-23T14:37:08.855Z,3.37
2019-03-23T14:40:22.555Z,2.22
2019-03-23T14:42:53.906Z,2.00
2019-03-23T14:46:53.132Z,1.70
2019-03-23T14:49:25.655Z,1.80
2019-03-23T15:02:00.520Z,2.40
2019-03-23T15:04:34.624Z,1.80
2019-03-23T15:07:06.051Z,2.08
2019-03-23T15:09:39.787Z,2.10
2019-03-23T15:12:18.743Z,2.08
2019-03-23T15:14:54.636Z,2.20
2019-03-23T15:17:31.676Z,1.80
2019-03-23T15:20:13.533Z,1.80
2019-03-23T15:23:04.856Z,2.35
2019-03-23T15:39:14.925Z,2.00
2019-03-23T15:42:24.927Z,2.00
2019-03-23T16:03:37.403Z,1.95
2019-03-23T16:06:53.851Z,2.27
2019-03-23T16:09:11.993Z,1.90
2019-03-23T16:11:49.890Z,2.27
2019-03-23T16:41:47.033Z,1.77
2019-03-23T16:56:54.135Z,1.90
2019-03-23T16:59:41.823Z,2.77
2019-03-23T17:25:14.732Z,2.00
2019-03-23T17:28:09.900Z,2.47
2019-03-23T17:30:42.702Z,2.23
2019-03-23T17:33:15.920Z,2.10
2019-03-23T17:35:49.766Z,2.17
2019-03-23T17:38:25.993Z,2.60
2019-03-23T17:41:03.497Z,2.30
2019-03-23T17:43:40.648Z,2.10
2019-03-23T17:46:14.609Z,2.20
2019-03-23T17:48:55.838Z,3.20
2019-03-23T17:51:45.803Z,2.23
2019-03-23T17:54:35.967Z,1.87
2019-03-23T18:12:51.129Z,2.50
2019-03-23T18:15:27.706Z,2.40
2019-03-23T18:18:44.306Z,2.10
2019-03-23T18:21:37.160Z,2.33
2019-03-23T18:27:47.160Z,2.20
2019-03-23T18:30:50.270Z,2.20
2019-03-23T18:33:50.427Z,2.53
2019-03-23T18:36:57.965Z,1.93
2019-03-23T18:39:56.275Z,1.93
2019-03-23T18:45:55.686Z,2.30
2019-03-23T18:48:53.112Z,2.40
2019-03-23T18:51:38.778Z,1.93
2019-03-23T18:54:21.224Z,2.10
2019-03-23T18:57:51.480Z,2.67
2019-03-23T19:00:45.595Z,2.50
2019-03-23T19:03:49.713Z,2.50
2019-03-23T19:05:59.773Z,2.40
2019-03-23T19:08:52.893Z,2.70
2019-03-23T19:11:38.213Z,2.33
2019-03-23T19:14:50.197Z,2.50
2019-03-23T19:20:24.277Z,2.33
2019-03-23T19:23:50.998Z,2.37
2019-03-23T19:26:29.200Z,2.00
2019-03-23T19:32:09.176Z,2.17
2019-03-23T19:34:37.748Z,2.30
2019-03-23T19:37:45.009Z,2.10
2019-03-23T19:40:16.224Z,2.30
2019-03-23T19:42:59.565Z,2.53
2019-03-23T19:45:39.598Z,2.10
2019-03-23T19:48:24.609Z,2.33
2019-03-23T19:50:57.762Z,2.33
2019-03-23T20:05:49.780Z,3.33
2019-03-23T20:08:22.873Z,2.10
2019-03-23T20:11:49.032Z,2.00
2019-03-23T20:13:42.355Z,2.20
2019-03-23T20:16:37.752Z,2.87
2019-03-23T20:19:38.493Z,3.20
2019-03-23T20:22:16.554Z,2.53
2019-03-23T20:24:49.654Z,2.33
2019-03-23T20:27:22.791Z,2.10
2019-03-23T20:30:06.153Z,2.73
2019-03-23T20:36:30.556Z,2.03
2019-03-23T20:39:04.478Z,2.40
2019-03-23T20:42:15.936Z,2.70
2019-03-23T20:44:44.802Z,2.37
2019-03-23T20:47:37.182Z,2.30
2019-03-23T20:50:19.774Z,2.30
2019-03-23T20:53:04.783Z,2.20
2019-03-23T20:56:28.890Z,2.37
2019-03-23T20:59:18.170Z,2.37
2019-03-23T21:03:01.552Z,2.53
2019-03-23T21:05:33.182Z,2.00
2019-03-23T21:08:15.782Z,2.03
2019-03-23T21:11:20.973Z,2.00
2019-03-23T21:13:49.312Z,1.80
2019-03-23T21:16:53.319Z,2.10
2019-03-23T21:19:30.088Z,1.97
2019-03-23T21:22:05.557Z,3.20
2019-03-23T21:24:42.680Z,2.30
2019-03-23T21:27:30.878Z,1.93
2019-03-23T21:30:15.902Z,2.07
2019-03-23T21:33:03.869Z,2.33
2019-03-23T21:36:28.119Z,2.03
2019-03-23T21:40:35.490Z,2.30
2019-03-23T21:41:43.087Z,2.27
2019-03-23T21:44:30.876Z,1.97
2019-03-23T21:47:40.850Z,2.33
2019-03-23T21:50:33.472Z,2.00
2019-03-23T21:53:34.937Z,2.13
2019-03-23T21:55:56.646Z,2.37
2019-03-23T21:58:35.923Z,2.47
2019-03-23T22:01:10.381Z,2.10
2019-03-23T22:04:10.170Z,2.00
2019-03-23T22:06:48.738Z,1.97
2019-03-23T22:22:50.741Z,2.30
2019-03-23T22:25:30.783Z,2.20
2019-03-23T22:28:39.123Z,2.00
2019-03-23T22:31:27.852Z,1.90
2019-03-23T22:34:01.959Z,2.10
2019-03-23T22:36:45.563Z,1.93
2019-03-23T22:39:20.630Z,2.40
2019-03-23T22:42:00.883Z,2.10
2019-03-23T22:44:52.733Z,2.30
2019-03-23T22:47:51.220Z,1.77
2019-03-23T22:50:23.906Z,1.87
2019-03-23T22:53:01.800Z,1.90
2019-03-23T22:55:45.453Z,1.80
2019-03-23T22:58:32.806Z,2.10
2019-03-23T23:01:13.079Z,2.20
2019-03-23T23:03:47.999Z,2.10
2019-03-23T23:06:30.366Z,1.90
2019-03-23T23:09:27.773Z,2.10
2019-03-23T23:11:53.423Z,2.57
2019-03-23T23:14:26.357Z,2.03
2019-03-23T23:16:58.689Z,2.10
2019-03-23T23:19:35.050Z,1.90
2019-03-23T23:22:18.085Z,2.20
2019-03-23T23:24:58.659Z,2.23
2019-03-23T23:27:50.976Z,1.67
2019-03-23T23:30:34.011Z,1.50
2019-03-23T23:33:26.855Z,1.80
2019-03-23T23:36:08.037Z,1.97
2019-03-23T23:38:52.510Z,2.33
2019-03-23T23:41:46.784Z,1.70
2019-03-23T23:44:23.698Z,1.80
2019-03-23T23:46:56.547Z,1.80
2019-03-23T23:49:28.165Z,2.50
2019-03-23T23:52:03.547Z,1.87
2019-03-23T23:54:39.635Z,1.60
2019-03-23T23:57:14.586Z,2.23
2019-03-23T23:59:45.924Z,1.90
